createdAt,value
2023-03-05T00:01:55.960Z,76.72
2023-03-05T00:04:32.222Z,76.64
2023-03-05T00:07:12.472Z,76.56
2023-03-05T00:09:48.976Z,76.49
2023-03-05T00:12:25.608Z,76.50
2023-03-05T00:15:02.080Z,76.27
2023-03-05T00:17:38.749Z,76.05
2023-03-05T00:20:17.795Z,75.94
2023-03-05T00:22:54.243Z,75.83
2023-03-05T00:25:31.710Z,75.73
2023-03-05T00:28:08.743Z,75.74
2023-03-05T00:30:45.717Z,75.62
2023-03-05T00:33:22.076Z,75.48
2023-03-05T00:35:58.815Z,75.39
2023-03-05T00:38:36.222Z,75.22
2023-03-05T00:41:13.040Z,75.16
2023-03-05T00:43:49.829Z,75.09
2023-03-05T00:46:27.769Z,75.04
2023-03-05T00:49:04.610Z,74.98
2023-03-05T00:51:41.819Z,74.91
2023-03-05T00:54:18.226Z,74.87
2023-03-05T00:56:54.888Z,74.70
2023-03-05T00:59:31.241Z,74.57
2023-03-05T01:02:07.518Z,74.39
2023-03-05T01:04:47.206Z,74.32
2023-03-05T01:07:23.494Z,74.18
2023-03-05T01:09:59.816Z,74.12
2023-03-05T01:12:36.340Z,74.02
2023-03-05T01:15:14.424Z,73.98
2023-03-05T01:17:50.692Z,73.95
2023-03-05T01:20:28.129Z,73.92
2023-03-05T01:23:04.463Z,73.89
2023-03-05T01:25:41.251Z,73.91
2023-03-05T01:28:18.031Z,73.81
2023-03-05T01:30:54.887Z,73.78
2023-03-05T01:33:31.234Z,73.90
2023-03-05T01:36:16.217Z,73.91
2023-03-05T01:38:53.043Z,73.90
2023-03-05T01:41:29.585Z,73.55
2023-03-05T01:44:06.754Z,73.32
2023-03-05T01:46:44.373Z,73.19
2023-03-05T01:49:34.515Z,73.08
2023-03-05T01:52:18.937Z,73.09
2023-03-05T01:55:00.964Z,73.07
2023-03-05T01:57:43.858Z,72.91
2023-03-05T02:00:30.617Z,72.71
2023-03-05T02:03:11.914Z,72.44
2023-03-05T02:05:49.153Z,72.18
2023-03-05T02:08:26.716Z,72.13
2023-03-05T02:11:03.308Z,71.81
2023-03-05T02:13:41.389Z,71.55
2023-03-05T02:16:17.826Z,71.31
2023-03-05T02:18:54.434Z,71.11
2023-03-05T02:21:46.686Z,70.83
2023-03-05T02:24:38.246Z,70.65
2023-03-05T02:27:16.258Z,70.25
2023-03-05T02:29:53.739Z,70.08
2023-03-05T02:32:31.661Z,69.81
2023-03-05T02:35:09.567Z,69.28
2023-03-05T02:37:46.244Z,68.88
2023-03-05T02:40:23.280Z,68.68
2023-03-05T02:43:00.492Z,68.53
2023-03-05T02:45:37.739Z,68.39
2023-03-05T02:48:14.344Z,68.28
2023-03-05T02:50:51.182Z,68.13
2023-03-05T02:53:28.116Z,68.23
2023-03-05T02:56:05.958Z,67.95
2023-03-05T02:58:44.263Z,67.73
2023-03-05T03:01:21.013Z,67.50
2023-03-05T03:03:57.784Z,67.48
2023-03-05T03:06:34.252Z,67.53
2023-03-05T03:09:10.716Z,67.86
2023-03-05T03:11:47.314Z,67.09
2023-03-05T03:14:23.960Z,66.99
2023-03-05T03:17:01.082Z,66.86
2023-03-05T03:19:38.075Z,66.58
2023-03-05T03:22:17.033Z,66.26
2023-03-05T03:24:53.343Z,65.97
2023-03-05T03:27:29.755Z,65.97
2023-03-05T03:30:07.659Z,65.94
2023-03-05T03:32:44.439Z,65.92
2023-03-05T03:35:21.646Z,65.80
2023-03-05T03:37:58.144Z,65.92
2023-03-05T03:40:36.050Z,65.92
2023-03-05T03:43:12.521Z,66.40
2023-03-05T03:45:49.300Z,66.00
2023-03-05T03:48:25.555Z,65.71
2023-03-05T03:51:04.724Z,65.45
2023-03-05T03:53:41.052Z,65.43
2023-03-05T03:56:17.415Z,65.16
2023-03-05T03:58:56.553Z,64.96
2023-03-05T04:01:33.164Z,65.37
2023-03-05T04:04:11.636Z,65.46
2023-03-05T04:06:48.283Z,65.26
2023-03-05T04:09:24.668Z,65.26
2023-03-05T04:12:01.425Z,65.24
2023-03-05T04:14:38.744Z,65.36
2023-03-05T04:17:16.198Z,65.47
2023-03-05T04:19:53.158Z,65.24
2023-03-05T04:22:30.496Z,65.47
2023-03-05T04:25:09.854Z,65.32
2023-03-05T04:27:46.725Z,65.21
2023-03-05T04:30:24.339Z,65.38
2023-03-05T04:33:01.172Z,65.37
2023-03-05T04:35:38.235Z,65.01
2023-03-05T04:38:15.571Z,64.88
2023-03-05T04:40:53.084Z,64.82
2023-03-05T04:43:30.132Z,64.88
2023-03-05T04:46:08.259Z,64.94
2023-03-05T04:48:44.782Z,64.83
2023-03-05T04:51:21.076Z,64.79
2023-03-05T04:53:57.707Z,64.76
2023-03-05T04:56:34.036Z,64.78
2023-03-05T04:59:10.791Z,64.89
2023-03-05T05:01:47.516Z,64.91
2023-03-05T05:04:24.309Z,64.97
2023-03-05T05:07:03.066Z,64.82
2023-03-05T05:09:41.452Z,64.94
2023-03-05T05:12:18.262Z,65.10
2023-03-05T05:14:54.830Z,65.18
2023-03-05T05:17:33.340Z,65.21
2023-03-05T05:20:16.752Z,65.26
2023-03-05T05:22:52.976Z,65.25
2023-03-05T05:25:29.621Z,65.23
2023-03-05T05:28:06.514Z,65.28
2023-03-05T05:30:43.170Z,65.41
2023-03-05T05:33:19.512Z,65.53
2023-03-05T05:35:56.335Z,65.56
2023-03-05T05:38:33.346Z,65.82
2023-03-05T05:41:14.154Z,65.91
2023-03-05T05:43:50.785Z,66.03
2023-03-05T05:46:29.107Z,66.34
2023-03-05T05:49:05.675Z,66.41
2023-03-05T05:51:42.405Z,66.51
2023-03-05T05:54:20.037Z,66.58
2023-03-05T05:56:56.565Z,66.75
2023-03-05T05:59:32.936Z,66.97
2023-03-05T06:02:11.246Z,67.21
2023-03-05T06:04:47.831Z,67.43
2023-03-05T06:07:24.056Z,67.54
2023-03-05T06:10:00.598Z,67.75
2023-03-05T06:12:37.210Z,67.88
2023-03-05T06:15:15.215Z,68.05
2023-03-05T06:17:51.408Z,68.28
2023-03-05T06:20:28.957Z,68.54
2023-03-05T06:23:05.195Z,68.80
2023-03-05T06:25:42.182Z,68.95
2023-03-05T06:28:18.527Z,69.35
2023-03-05T06:31:02.976Z,69.62
2023-03-05T06:33:41.193Z,69.94
2023-03-05T06:36:20.805Z,70.22
2023-03-05T06:38:58.884Z,70.65
2023-03-05T06:41:36.351Z,71.08
2023-03-05T06:44:13.061Z,71.08
2023-03-05T06:46:49.769Z,71.13
2023-03-05T06:49:26.154Z,71.52
2023-03-05T06:52:02.729Z,71.83
2023-03-05T06:54:39.298Z,72.00
2023-03-05T06:57:17.076Z,71.87
2023-03-05T06:59:53.383Z,71.96
2023-03-05T07:02:29.946Z,72.23
2023-03-05T07:05:07.930Z,72.24
2023-03-05T07:07:44.170Z,72.12
2023-03-05T07:10:20.899Z,72.35
2023-03-05T07:12:57.630Z,72.34
2023-03-05T07:15:34.562Z,72.38
2023-03-05T07:18:11.646Z,72.41
2023-03-05T07:20:48.065Z,72.43
2023-03-05T07:23:28.791Z,72.25
2023-03-05T07:26:08.172Z,72.15
2023-03-05T07:28:44.982Z,72.27
2023-03-05T07:31:27.308Z,72.10
2023-03-05T07:34:06.654Z,72.11
2023-03-05T07:36:43.246Z,72.06
2023-03-05T07:39:24.689Z,72.00
2023-03-05T07:42:01.426Z,72.00
2023-03-05T07:44:40.420Z,72.05
2023-03-05T07:47:16.895Z,72.05
2023-03-05T07:49:56.609Z,72.02
2023-03-05T07:52:33.647Z,72.03
2023-03-05T07:55:12.986Z,72.02
2023-03-05T07:57:49.273Z,72.06
2023-03-05T08:00:26.691Z,72.09
2023-03-05T08:03:03.440Z,72.17
2023-03-05T08:05:41.981Z,72.18
2023-03-05T08:08:18.718Z,72.21
2023-03-05T08:10:55.035Z,72.16
2023-03-05T08:13:31.601Z,72.09
2023-03-05T08:16:15.564Z,72.06
2023-03-05T08:18:54.798Z,72.01
2023-03-05T08:21:34.697Z,71.94
2023-03-05T08:24:14.840Z,71.89
2023-03-05T08:26:51.129Z,71.85
2023-03-05T08:29:28.338Z,71.75
2023-03-05T08:32:05.465Z,71.65
2023-03-05T08:34:41.873Z,71.57
2023-03-05T08:37:18.192Z,71.46
2023-03-05T08:39:56.310Z,71.36
2023-03-05T08:42:32.811Z,71.32
2023-03-05T08:45:12.050Z,71.22
2023-03-05T08:47:48.454Z,71.22
2023-03-05T08:50:26.374Z,71.23
2023-03-05T08:53:03.092Z,71.33
2023-03-05T08:55:39.877Z,71.42
2023-03-05T08:58:16.134Z,71.45
2023-03-05T09:00:52.592Z,71.52
2023-03-05T09:03:29.266Z,71.44
2023-03-05T09:06:12.438Z,71.33
2023-03-05T09:08:48.903Z,71.26
2023-03-05T09:11:25.984Z,71.16
2023-03-05T09:14:02.505Z,71.15
2023-03-05T09:16:41.311Z,71.11
2023-03-05T09:19:18.833Z,70.92
2023-03-05T09:21:56.957Z,70.66
2023-03-05T09:24:33.708Z,70.55
2023-03-05T09:27:11.156Z,70.35
2023-03-05T09:29:47.479Z,70.13
2023-03-05T09:32:24.576Z,69.84
2023-03-05T09:35:01.527Z,69.67
2023-03-05T09:37:38.092Z,69.59
2023-03-05T09:40:23.208Z,69.48
2023-03-05T09:43:15.107Z,69.41
2023-03-05T09:46:04.986Z,69.33
2023-03-05T09:48:59.145Z,69.47
2023-03-05T09:51:42.196Z,69.31
2023-03-05T09:54:24.745Z,69.04
2023-03-05T09:57:07.267Z,68.95
2023-03-05T09:59:57.132Z,68.85
2023-03-05T10:02:44.897Z,68.76
2023-03-05T10:05:30.685Z,68.89
2023-03-05T10:08:11.505Z,68.80
2023-03-05T10:10:53.843Z,68.54
2023-03-05T10:13:35.368Z,68.55
2023-03-05T10:16:50.815Z,68.53
2023-03-05T10:20:02.961Z,68.44
2023-03-05T10:22:53.104Z,68.52
2023-03-05T10:25:50.965Z,68.47
2023-03-05T10:29:05.609Z,68.42
2023-03-05T10:32:03.903Z,68.49
2023-03-05T10:35:24.903Z,68.40
2023-03-05T10:38:48.276Z,68.43
2023-03-05T10:41:38.909Z,68.46
2023-03-05T10:44:28.754Z,68.33
2023-03-05T10:47:17.116Z,68.18
2023-03-05T10:49:58.455Z,68.10
2023-03-05T10:52:46.682Z,67.98
2023-03-05T10:55:25.461Z,67.74
2023-03-05T10:58:02.304Z,67.58
2023-03-05T11:00:38.981Z,67.39
2023-03-05T11:03:15.632Z,67.06
2023-03-05T11:06:00.188Z,66.85
2023-03-05T11:08:40.328Z,66.59
2023-03-05T11:11:24.184Z,66.37
2023-03-05T11:14:04.892Z,66.36
2023-03-05T11:16:53.245Z,66.28
2023-03-05T11:19:33.328Z,66.29
2023-03-05T11:22:21.757Z,66.34
2023-03-05T11:25:21.570Z,66.41
2023-03-05T11:28:01.827Z,66.71
2023-03-05T11:30:42.093Z,67.03
2023-03-05T11:33:24.167Z,67.45
2023-03-05T11:36:31.056Z,68.02
2023-03-05T11:39:22.638Z,68.29
2023-03-05T11:42:05.381Z,69.10
2023-03-05T11:44:51.841Z,69.63
2023-03-05T11:47:43.752Z,70.25
2023-03-05T11:50:28.544Z,70.86
2023-03-05T11:53:13.149Z,71.43
2023-03-05T11:55:54.149Z,71.75
2023-03-05T11:58:41.566Z,72.05
2023-03-05T12:01:24.338Z,72.17
2023-03-05T12:04:01.730Z,72.40
2023-03-05T12:06:45.967Z,72.63
2023-03-05T12:09:33.914Z,72.74
2023-03-05T12:12:25.936Z,72.86
2023-03-05T12:15:16.166Z,72.83
2023-03-05T12:18:12.159Z,72.69
2023-03-05T12:21:04.175Z,72.63
2023-03-05T12:23:53.123Z,72.63
2023-03-05T12:27:09.872Z,72.70
2023-03-05T12:29:53.023Z,72.44
2023-03-05T12:33:04.530Z,72.48
2023-03-05T12:35:43.089Z,72.46
2023-03-05T12:38:36.531Z,72.50
2023-03-05T12:41:46.665Z,72.57
2023-03-05T12:44:26.932Z,72.59
2023-03-05T12:47:23.864Z,72.71
2023-03-05T12:50:01.249Z,72.78
2023-03-05T12:52:39.836Z,72.85
2023-03-05T12:55:44.723Z,72.85
2023-03-05T12:58:32.690Z,72.90
2023-03-05T13:01:24.936Z,72.98
2023-03-05T13:04:11.186Z,72.87
2023-03-05T13:06:48.284Z,72.85
2023-03-05T13:09:31.865Z,72.85
2023-03-05T13:12:16.442Z,72.90
2023-03-05T13:15:00.515Z,72.67
2023-03-05T13:17:53.184Z,72.53
2023-03-05T13:20:39.540Z,72.41
2023-03-05T13:23:29.679Z,72.36
2023-03-05T13:26:19.226Z,72.21
2023-03-05T13:31:59.894Z,71.64
2023-03-05T13:34:47.626Z,71.77
2023-03-05T13:37:29.016Z,71.90
2023-03-05T13:40:20.427Z,71.80
2023-03-05T13:43:09.761Z,71.55
2023-03-05T13:45:55.147Z,71.56
2023-03-05T13:48:33.112Z,71.50
2023-03-05T13:51:12.049Z,71.45
2023-03-05T13:53:49.659Z,71.07
2023-03-05T13:56:26.128Z,71.22
2023-03-05T13:59:02.883Z,71.00
2023-03-05T14:01:45.845Z,70.96
2023-03-05T14:04:30.395Z,70.55
2023-03-05T14:07:24.750Z,70.55
2023-03-05T14:10:03.197Z,70.39
2023-03-05T14:12:44.214Z,70.39
2023-03-05T14:15:30.743Z,70.12
2023-03-05T14:18:25.971Z,70.18
2023-03-05T14:21:11.277Z,70.01
2023-03-05T14:23:51.757Z,70.02
2023-03-05T14:26:34.051Z,70.09
2023-03-05T14:29:21.181Z,70.11
2023-03-05T14:32:01.484Z,70.26
2023-03-05T14:34:42.174Z,70.40
2023-03-05T14:37:28.429Z,70.41
2023-03-05T14:40:08.629Z,70.42
2023-03-05T14:42:58.649Z,69.84
2023-03-05T14:45:38.465Z,69.40
2023-03-05T14:48:19.237Z,68.75
2023-03-05T14:50:58.408Z,68.20
2023-03-05T14:53:42.464Z,67.71
2023-03-05T14:56:27.560Z,66.94
2023-03-05T14:59:03.985Z,67.21
2023-03-05T15:01:40.437Z,66.36
2023-03-05T15:04:19.428Z,66.55
2023-03-05T15:06:56.014Z,66.27
2023-03-05T15:09:32.595Z,65.71
2023-03-05T15:12:10.697Z,65.76
2023-03-05T15:14:47.841Z,65.52
2023-03-05T15:17:30.352Z,65.59
2023-03-05T15:20:10.589Z,65.49
2023-03-05T15:22:47.205Z,65.55
2023-03-05T15:25:26.949Z,65.48
2023-03-05T15:28:03.605Z,65.86
2023-03-05T15:30:43.667Z,66.07
2023-03-05T15:33:23.177Z,66.19
2023-03-05T15:36:00.524Z,66.26
2023-03-05T15:38:38.997Z,66.35
2023-03-05T15:41:17.725Z,66.53
2023-03-05T15:43:54.377Z,66.61
2023-03-05T15:46:32.684Z,66.72
2023-03-05T15:49:09.413Z,66.88
2023-03-05T15:51:46.279Z,67.01
2023-03-05T15:54:22.904Z,67.18
2023-03-05T15:56:59.490Z,67.30
2023-03-05T15:59:36.072Z,67.48
2023-03-05T16:02:12.823Z,67.68
2023-03-05T16:04:49.512Z,67.74
2023-03-05T16:07:25.907Z,67.96
2023-03-05T16:10:03.012Z,68.04
2023-03-05T16:12:43.517Z,68.12
2023-03-05T16:15:23.600Z,68.15
2023-03-05T16:18:06.168Z,68.25
2023-03-05T16:20:43.009Z,68.34
2023-03-05T16:23:19.894Z,68.33
2023-03-05T16:25:58.703Z,68.40
2023-03-05T16:28:36.552Z,68.43
2023-03-05T16:31:13.495Z,68.50
2023-03-05T16:33:50.405Z,68.51
2023-03-05T16:36:31.548Z,68.53
2023-03-05T16:39:11.148Z,68.45
2023-03-05T16:41:48.227Z,68.52
2023-03-05T16:44:25.019Z,68.53
2023-03-05T16:47:01.332Z,68.55
2023-03-05T16:49:38.112Z,68.57
2023-03-05T16:52:19.701Z,68.62
2023-03-05T16:54:57.808Z,68.69
2023-03-05T16:57:34.893Z,68.73
2023-03-05T17:00:17.247Z,68.78
2023-03-05T17:02:54.411Z,68.84
2023-03-05T17:05:32.015Z,68.91
2023-03-05T17:08:09.881Z,69.02
2023-03-05T17:10:47.379Z,69.14
2023-03-05T17:13:24.017Z,69.40
2023-03-05T17:16:01.068Z,69.64
2023-03-05T17:18:38.601Z,69.92
2023-03-05T17:21:16.581Z,70.31
2023-03-05T17:23:53.340Z,70.51
2023-03-05T17:26:32.730Z,70.63
2023-03-05T17:29:10.383Z,71.02
2023-03-05T17:31:47.620Z,71.10
2023-03-05T17:34:35.580Z,71.35
2023-03-05T17:37:16.723Z,71.69
2023-03-05T17:39:53.969Z,72.08
2023-03-05T17:42:31.516Z,72.34
2023-03-05T17:45:09.906Z,72.59
2023-03-05T17:47:47.157Z,72.78
2023-03-05T17:50:25.232Z,72.91
2023-03-05T17:53:02.054Z,73.44
2023-03-05T17:55:41.175Z,73.34
2023-03-05T17:58:18.134Z,73.42
2023-03-05T18:00:55.317Z,73.71
2023-03-05T18:03:34.301Z,74.16
2023-03-05T18:06:12.737Z,74.56
2023-03-05T18:08:50.017Z,74.88
2023-03-05T18:11:27.675Z,75.11
2023-03-05T18:14:06.172Z,75.16
2023-03-05T18:16:43.002Z,75.55
2023-03-05T18:19:20.012Z,75.68
2023-03-05T18:21:57.889Z,76.11
2023-03-05T18:24:35.828Z,76.31
2023-03-05T18:27:13.019Z,76.34
2023-03-05T18:29:54.088Z,76.63
2023-03-05T18:32:31.876Z,76.62
2023-03-05T18:35:14.200Z,76.70
2023-03-05T18:37:51.035Z,76.94
2023-03-05T18:40:32.658Z,76.95
2023-03-05T18:43:11.023Z,77.27
2023-03-05T18:45:49.103Z,77.47
2023-03-05T18:48:26.646Z,77.55
2023-03-05T18:51:03.696Z,77.75
2023-03-05T18:53:40.256Z,77.67
2023-03-05T18:56:17.503Z,77.81
2023-03-05T18:58:54.410Z,78.05
2023-03-05T19:01:31.534Z,78.19
2023-03-05T19:04:08.443Z,78.25
2023-03-05T19:06:45.513Z,78.08
2023-03-05T19:09:58.857Z,78.03
2023-03-05T19:13:06.022Z,78.37
2023-03-05T19:15:57.521Z,78.28
2023-03-05T19:19:16.565Z,78.31
2023-03-05T19:21:56.455Z,78.19
2023-03-05T19:24:34.787Z,78.43
2023-03-05T19:27:13.592Z,78.68
2023-03-05T19:29:50.836Z,78.90
2023-03-05T19:32:27.764Z,79.04
2023-03-05T19:35:05.061Z,78.94
2023-03-05T19:37:41.669Z,79.24
2023-03-05T19:40:20.828Z,79.27
2023-03-05T19:42:58.011Z,79.35
2023-03-05T19:45:38.410Z,79.14
2023-03-05T19:48:16.904Z,79.45
2023-03-05T19:50:55.044Z,79.58
2023-03-05T19:53:32.080Z,79.70
2023-03-05T19:56:11.847Z,79.79
2023-03-05T19:58:50.286Z,79.66
2023-03-05T20:01:29.997Z,79.76
2023-03-05T20:04:09.519Z,79.89
2023-03-05T20:06:47.003Z,79.95
2023-03-05T20:09:23.850Z,80.08
2023-03-05T20:12:02.850Z,80.19
2023-03-05T20:14:40.162Z,80.22
2023-03-05T20:17:17.534Z,79.87
2023-03-05T20:19:58.994Z,79.97
2023-03-05T20:22:35.943Z,80.03
2023-03-05T20:25:16.523Z,79.59
2023-03-05T20:27:54.490Z,79.46
2023-03-05T20:30:31.656Z,79.25
2023-03-05T20:33:09.324Z,79.10
2023-03-05T20:35:46.279Z,79.05
2023-03-05T20:38:29.678Z,78.99
2023-03-05T20:41:10.331Z,78.95
2023-03-05T20:43:50.690Z,78.91
2023-03-05T20:46:31.433Z,78.86
2023-03-05T20:49:09.109Z,78.76
2023-03-05T20:51:49.206Z,78.76
2023-03-05T20:54:27.374Z,78.75
2023-03-05T20:57:04.290Z,78.78
2023-03-05T20:59:41.206Z,78.87
2023-03-05T21:02:18.505Z,78.92
2023-03-05T21:04:55.135Z,78.99
2023-03-05T21:07:31.602Z,78.90
2023-03-05T21:10:11.101Z,78.85
2023-03-05T21:12:47.887Z,78.89
2023-03-05T21:15:29.598Z,78.95
2023-03-05T21:18:09.485Z,78.96
2023-03-05T21:20:46.115Z,79.02
2023-03-05T21:23:22.405Z,79.00
2023-03-05T21:25:59.072Z,79.11
2023-03-05T21:28:35.527Z,79.28
2023-03-05T21:31:21.662Z,79.37
2023-03-05T21:33:58.172Z,79.57
2023-03-05T21:36:35.263Z,79.70
2023-03-05T21:39:11.828Z,79.89
2023-03-05T21:41:48.509Z,80.00
2023-03-05T21:44:25.134Z,80.16
2023-03-05T21:47:01.472Z,80.35
2023-03-05T21:49:37.910Z,80.51
2023-03-05T21:52:15.316Z,80.64
2023-03-05T21:54:53.952Z,80.69
2023-03-05T21:57:30.452Z,80.73
2023-03-05T22:00:10.075Z,80.89
2023-03-05T22:02:48.225Z,81.05
2023-03-05T22:05:25.135Z,81.21
2023-03-05T22:08:01.398Z,81.34
2023-03-05T22:10:37.747Z,81.51
2023-03-05T22:13:17.746Z,81.60
2023-03-05T22:15:57.299Z,81.68
2023-03-05T22:18:36.248Z,81.81
2023-03-05T22:21:27.037Z,81.92
2023-03-05T22:24:04.021Z,82.04
2023-03-05T22:26:43.134Z,82.09
2023-03-05T22:29:19.906Z,82.30
2023-03-05T22:31:58.457Z,82.44
2023-03-05T22:34:35.115Z,82.57
2023-03-05T22:37:12.350Z,82.69
2023-03-05T22:39:48.864Z,82.73
2023-03-05T22:42:25.766Z,82.86
2023-03-05T22:45:06.039Z,82.76
2023-03-05T22:47:42.876Z,82.88
2023-03-05T22:50:20.156Z,82.82
2023-03-05T22:52:56.525Z,82.94
2023-03-05T22:55:33.249Z,83.02
2023-03-05T22:58:09.793Z,83.21
2023-03-05T23:00:46.240Z,83.26
2023-03-05T23:03:22.635Z,83.46
2023-03-05T23:05:59.289Z,83.49
2023-03-05T23:08:36.270Z,83.34
2023-03-05T23:11:17.118Z,83.43
2023-03-05T23:13:53.413Z,83.51
2023-03-05T23:16:29.773Z,83.56
2023-03-05T23:19:06.139Z,83.71
2023-03-05T23:21:42.813Z,83.81
2023-03-05T23:24:19.203Z,83.88
2023-03-05T23:26:55.658Z,83.97
2023-03-05T23:30:20.653Z,84.06
2023-03-05T23:33:00.774Z,83.97
2023-03-05T23:35:41.864Z,83.88
2023-03-05T23:38:19.583Z,83.91
2023-03-05T23:41:01.214Z,83.98
2023-03-05T23:43:38.436Z,84.10
2023-03-05T23:46:18.338Z,84.14
2023-03-05T23:48:54.821Z,84.06
2023-03-05T23:51:31.189Z,84.07
2023-03-05T23:54:08.211Z,83.96
2023-03-05T23:56:44.898Z,84.03
2023-03-05T23:59:22.233Z,84.11
